createdAt,value
2019-03-25T00:01:20.867Z,97627.14
2019-03-25T00:02:57.357Z,97617.92
2019-03-25T00:04:34.053Z,97616.14
2019-03-25T00:06:10.953Z,97611.62
2019-03-25T00:07:46.630Z,97610.80
2019-03-25T00:09:22.454Z,97612.88
2019-03-25T00:10:58.338Z,97611.52
2019-03-25T00:12:35.384Z,97601.55
2019-03-25T00:14:13.184Z,97603.17
2019-03-25T00:15:49.727Z,97601.77
2019-03-25T00:17:25.727Z,97602.61
2019-03-25T00:19:01.346Z,97594.39
2019-03-25T00:20:37.452Z,97594.39
2019-03-25T00:22:13.194Z,97594.81
2019-03-25T00:23:49.068Z,97592.45
2019-03-25T00:25:25.415Z,97592.30
2019-03-25T00:27:01.775Z,97592.00
2019-03-25T00:28:39.163Z,97589.20
2019-03-25T00:30:16.819Z,97587.03
2019-03-25T00:31:53.954Z,97581.44
2019-03-25T00:33:31.472Z,97580.55
2019-03-25T00:35:07.501Z,97575.61
2019-03-25T00:36:44.187Z,97577.75
2019-03-25T00:38:20.452Z,97571.88
2019-03-25T00:39:58.677Z,97575.34
2019-03-25T00:41:34.558Z,97568.23
2019-03-25T00:43:10.329Z,97560.36
2019-03-25T00:44:46.328Z,97554.02
2019-03-25T00:46:21.968Z,97553.49
2019-03-25T00:47:57.835Z,97550.59
2019-03-25T00:49:43.209Z,97544.83
2019-03-25T00:51:22.486Z,97541.36
2019-03-25T00:53:00.814Z,97546.80
2019-03-25T00:54:37.818Z,97543.93
2019-03-25T00:56:13.568Z,97538.16
2019-03-25T00:57:52.101Z,97532.39
2019-03-25T00:59:28.202Z,97532.97
2019-03-25T01:01:03.798Z,97538.56
2019-03-25T01:02:41.765Z,97527.00
2019-03-25T01:04:20.684Z,97533.17
2019-03-25T01:05:56.531Z,97530.84
2019-03-25T01:07:34.294Z,97526.63
2019-03-25T01:09:10.385Z,97525.69
2019-03-25T01:10:46.473Z,97526.47
2019-03-25T01:12:24.951Z,97524.34
2019-03-25T01:14:00.593Z,97524.55
2019-03-25T01:15:36.589Z,97524.95
2019-03-25T01:17:12.457Z,97526.50
2019-03-25T01:18:48.059Z,97519.59
2019-03-25T01:20:24.300Z,97518.03
2019-03-25T01:22:00.037Z,97509.94
2019-03-25T01:23:36.010Z,97513.98
2019-03-25T01:25:11.677Z,97509.36
2019-03-25T01:26:47.433Z,97509.36
2019-03-25T01:28:23.253Z,97500.08
2019-03-25T01:29:59.568Z,97508.75
2019-03-25T01:31:37.319Z,97507.41
2019-03-25T01:33:13.071Z,97510.14
2019-03-25T01:34:48.765Z,97504.70
2019-03-25T01:36:25.252Z,97500.66
2019-03-25T01:38:01.052Z,97501.80
2019-03-25T01:39:37.662Z,97500.45
2019-03-25T01:41:15.153Z,97501.06
2019-03-25T01:42:51.419Z,97495.86
2019-03-25T01:44:30.241Z,97493.54
2019-03-25T01:46:05.718Z,97489.52
2019-03-25T01:47:43.962Z,97495.33
2019-03-25T01:49:20.098Z,97482.80
2019-03-25T01:50:57.441Z,97485.91
2019-03-25T01:52:33.949Z,97481.86
2019-03-25T01:54:10.127Z,97478.58
2019-03-25T01:55:47.390Z,97474.16
2019-03-25T01:57:22.935Z,97468.36
2019-03-25T01:58:58.834Z,97465.48
2019-03-25T02:00:34.950Z,97462.95
2019-03-25T02:02:11.443Z,97463.73
2019-03-25T02:03:47.931Z,97453.91
2019-03-25T02:05:23.736Z,97447.13
2019-03-25T02:06:59.330Z,97446.33
2019-03-25T02:08:35.676Z,97440.90
2019-03-25T02:10:12.285Z,97445.72
2019-03-25T02:11:48.335Z,97440.87
2019-03-25T02:13:24.263Z,97441.98
2019-03-25T02:15:03.364Z,97437.36
2019-03-25T02:16:50.668Z,97439.25
2019-03-25T02:18:41.117Z,97441.55
2019-03-25T02:20:32.807Z,97432.84
2019-03-25T02:22:08.465Z,97419.35
2019-03-25T02:23:44.437Z,97419.19
2019-03-25T02:25:25.470Z,97417.83
2019-03-25T02:26:57.500Z,97421.91
2019-03-25T02:28:33.449Z,97422.89
2019-03-25T02:30:09.850Z,97417.89
2019-03-25T02:31:47.573Z,97415.02
2019-03-25T02:33:23.786Z,97416.95
2019-03-25T02:34:59.521Z,97410.97
2019-03-25T02:36:35.655Z,97410.23
2019-03-25T02:38:11.912Z,97406.18
2019-03-25T02:39:47.764Z,97407.93
2019-03-25T02:41:23.542Z,97399.46
2019-03-25T02:42:59.369Z,97399.26
2019-03-25T02:44:34.979Z,97399.46
2019-03-25T02:46:10.645Z,97399.05
2019-03-25T02:47:46.811Z,97395.03
2019-03-25T02:49:24.295Z,97397.73
2019-03-25T02:51:00.077Z,97395.41
2019-03-25T02:52:35.934Z,97392.70
2019-03-25T02:54:11.608Z,97381.91
2019-03-25T02:55:47.476Z,97384.61
2019-03-25T02:57:23.621Z,97378.64
2019-03-25T02:59:00.119Z,97386.73
2019-03-25T03:00:37.085Z,97373.79
2019-03-25T03:02:12.675Z,97371.86
2019-03-25T03:03:48.910Z,97368.94
2019-03-25T03:05:24.638Z,97367.98
2019-03-25T03:07:02.174Z,97363.17
2019-03-25T03:08:38.486Z,97361.84
2019-03-25T03:10:14.163Z,97356.62
2019-03-25T03:11:50.242Z,97358.56
2019-03-25T03:13:26.025Z,97356.47
2019-03-25T03:15:03.563Z,97356.84
2019-03-25T03:16:39.520Z,97348.73
2019-03-25T03:18:15.763Z,97350.09
2019-03-25T03:19:55.031Z,97356.46
2019-03-25T03:21:29.146Z,97348.97
2019-03-25T03:23:04.806Z,97354.96
2019-03-25T03:24:40.771Z,97354.19
2019-03-25T03:26:19.535Z,97355.73
2019-03-25T03:27:55.296Z,97350.89
2019-03-25T03:29:30.889Z,97345.69
2019-03-25T03:31:07.368Z,97353.21
2019-03-25T03:32:43.373Z,97342.22
2019-03-25T03:34:19.630Z,97333.72
2019-03-25T03:35:56.208Z,97331.02
2019-03-25T03:37:32.730Z,97339.34
2019-03-25T03:39:08.709Z,97340.31
2019-03-25T03:40:44.629Z,97337.81
2019-03-25T03:42:20.337Z,97339.94
2019-03-25T03:43:56.277Z,97326.81
2019-03-25T03:45:32.139Z,97335.88
2019-03-25T03:47:08.492Z,97334.91
2019-03-25T03:48:44.954Z,97329.91
2019-03-25T03:50:30.346Z,97334.71
2019-03-25T03:52:06.070Z,97323.72
2019-03-25T03:53:41.710Z,97316.59
2019-03-25T03:55:17.902Z,97306.96
2019-03-25T03:56:54.138Z,97311.01
2019-03-25T03:58:29.982Z,97304.84
2019-03-25T04:00:14.132Z,97298.08
2019-03-25T04:01:50.339Z,97295.77
2019-03-25T04:03:26.351Z,97301.36
2019-03-25T04:05:02.914Z,97308.48
2019-03-25T04:06:38.645Z,97301.16
2019-03-25T04:08:14.551Z,97310.80
2019-03-25T04:09:50.921Z,97307.55
2019-03-25T04:11:26.625Z,97313.92
2019-03-25T04:13:02.253Z,97315.64
2019-03-25T04:14:38.435Z,97317.20
2019-03-25T04:16:14.210Z,97311.02
2019-03-25T04:17:50.639Z,97315.64
2019-03-25T04:19:26.650Z,97298.09
2019-03-25T04:21:02.317Z,97302.72
2019-03-25T04:22:37.944Z,97301.77
2019-03-25T04:24:13.634Z,97307.36
2019-03-25T04:25:49.642Z,97299.27
2019-03-25T04:27:25.393Z,97296.38
2019-03-25T04:29:01.156Z,97298.11
2019-03-25T04:30:36.799Z,97294.06
2019-03-25T04:32:12.860Z,97297.16
2019-03-25T04:33:49.033Z,97298.30
2019-03-25T04:35:25.066Z,97296.38
2019-03-25T04:37:00.713Z,97292.91
2019-03-25T04:38:37.079Z,97291.96
2019-03-25T04:40:13.207Z,97290.98
2019-03-25T04:41:54.759Z,97283.27
2019-03-25T04:43:30.517Z,97272.27
2019-03-25T04:45:07.593Z,97277.68
2019-03-25T04:46:46.752Z,97277.30
2019-03-25T04:48:25.015Z,97274.22
2019-03-25T04:50:00.880Z,97279.42
2019-03-25T04:51:36.705Z,97275.19
2019-03-25T04:53:12.419Z,97277.69
2019-03-25T04:54:48.623Z,97280.20
2019-03-25T04:56:24.332Z,97273.84
2019-03-25T04:58:00.667Z,97271.34
2019-03-25T04:59:37.327Z,97273.64
2019-03-25T05:01:13.480Z,97274.81
2019-03-25T05:02:50.118Z,97275.39
2019-03-25T05:04:26.038Z,97269.22
2019-03-25T05:06:02.130Z,97284.09
2019-03-25T05:07:37.827Z,97278.30
2019-03-25T05:09:13.466Z,97283.48
2019-03-25T05:10:50.083Z,97281.76
2019-03-25T05:12:26.192Z,97286.41
2019-03-25T05:14:02.308Z,97283.72
2019-03-25T05:15:38.389Z,97277.93
2019-03-25T05:17:14.285Z,97274.84
2019-03-25T05:18:49.879Z,97270.58
2019-03-25T05:20:25.699Z,97276.57
2019-03-25T05:22:01.722Z,97280.05
2019-03-25T05:23:37.464Z,97281.39
2019-03-25T05:25:13.225Z,97281.59
2019-03-25T05:26:51.261Z,97277.16
2019-03-25T05:28:32.144Z,97275.04
2019-03-25T05:30:08.301Z,97273.50
2019-03-25T05:31:45.085Z,97267.11
2019-03-25T05:33:20.793Z,97274.83
2019-03-25T05:34:56.395Z,97273.67
2019-03-25T05:36:33.780Z,97268.47
2019-03-25T05:38:12.230Z,97272.14
2019-03-25T05:39:47.923Z,97271.95
2019-03-25T05:41:23.590Z,97272.53
2019-03-25T05:42:59.235Z,97269.99
2019-03-25T05:44:35.295Z,97270.77
2019-03-25T05:46:11.026Z,97265.94
2019-03-25T05:47:50.337Z,97270.19
2019-03-25T05:49:27.097Z,97274.05
2019-03-25T05:51:05.246Z,97272.70
2019-03-25T05:52:41.154Z,97270.98
2019-03-25T05:54:21.373Z,97277.75
2019-03-25T05:55:59.409Z,97272.34
2019-03-25T05:57:35.040Z,97267.89
2019-03-25T05:59:12.665Z,97271.95
2019-03-25T06:00:59.357Z,97273.69
2019-03-25T06:02:36.488Z,97275.81
2019-03-25T06:04:14.390Z,97267.70
2019-03-25T06:05:50.780Z,97277.35
2019-03-25T06:07:26.747Z,97279.09
2019-03-25T06:09:02.377Z,97275.23
2019-03-25T06:10:43.301Z,97280.42
2019-03-25T06:12:19.901Z,97286.05
2019-03-25T06:13:57.740Z,97282.58
2019-03-25T06:15:37.008Z,97286.83
2019-03-25T06:17:13.975Z,97288.17
2019-03-25T06:18:52.713Z,97290.66
2019-03-25T06:20:31.339Z,97286.83
2019-03-25T06:22:07.368Z,97291.05
2019-03-25T06:23:43.548Z,97287.95
2019-03-25T06:25:21.327Z,97283.91
2019-03-25T06:27:01.313Z,97286.03
2019-03-25T06:28:37.550Z,97291.05
2019-03-25T06:30:14.858Z,97279.67
2019-03-25T06:31:53.223Z,97283.72
2019-03-25T06:33:28.969Z,97279.47
2019-03-25T06:35:08.637Z,97287.02
2019-03-25T06:36:43.258Z,97297.24
2019-03-25T06:38:23.826Z,97299.74
2019-03-25T06:39:59.249Z,97297.55
2019-03-25T06:41:40.183Z,97300.17
2019-03-25T06:43:17.801Z,97296.52
2019-03-25T06:44:56.001Z,97304.14
2019-03-25T06:46:31.731Z,97310.44
2019-03-25T06:48:07.923Z,97311.55
2019-03-25T06:49:48.882Z,97308.47
2019-03-25T06:51:24.831Z,97312.31
2019-03-25T06:53:03.019Z,97310.59
2019-03-25T06:54:40.250Z,97316.04
2019-03-25T06:56:15.833Z,97307.77
2019-03-25T06:57:51.948Z,97316.11
2019-03-25T06:59:27.660Z,97307.48
2019-03-25T07:01:07.130Z,97313.69
2019-03-25T07:02:42.734Z,97315.66
2019-03-25T07:04:22.678Z,97320.73
2019-03-25T07:05:58.440Z,97324.64
2019-03-25T07:07:39.850Z,97317.12
2019-03-25T07:09:15.940Z,97324.45
2019-03-25T07:10:54.773Z,97315.20
2019-03-25T07:12:30.618Z,97317.89
2019-03-25T07:14:06.532Z,97314.05
2019-03-25T07:15:46.396Z,97311.14
2019-03-25T07:17:22.265Z,97315.39
2019-03-25T07:18:59.279Z,97318.48
2019-03-25T07:20:37.653Z,97322.16
2019-03-25T07:22:13.955Z,97302.84
2019-03-25T07:23:50.166Z,97318.28
2019-03-25T07:25:25.866Z,97319.65
2019-03-25T07:27:02.033Z,97310.37
2019-03-25T07:28:38.773Z,97319.07
2019-03-25T07:30:18.265Z,97318.49
2019-03-25T07:31:54.466Z,97312.11
2019-03-25T07:33:30.281Z,97304.77
2019-03-25T07:35:06.844Z,97310.19
2019-03-25T07:38:24.459Z,97312.48
2019-03-25T07:40:00.669Z,97313.45
2019-03-25T07:41:37.762Z,97317.50
2019-03-25T07:43:14.003Z,97312.86
2019-03-25T07:44:50.497Z,97312.86
2019-03-25T07:46:26.428Z,97319.04
2019-03-25T07:48:04.102Z,97312.30
2019-03-25T07:49:42.546Z,97315.38
2019-03-25T07:51:24.327Z,97315.56
2019-03-25T07:53:07.100Z,97311.31
2019-03-25T07:54:46.777Z,97316.34
2019-03-25T07:56:31.113Z,97311.53
2019-03-25T07:58:10.122Z,97318.28
2019-03-25T07:59:46.995Z,97312.68
2019-03-25T08:01:22.862Z,97320.80
2019-03-25T08:02:59.532Z,97311.92
2019-03-25T08:04:38.886Z,97328.53
2019-03-25T08:06:15.755Z,97338.56
2019-03-25T08:07:55.089Z,97337.58
2019-03-25T08:09:33.069Z,97334.84
2019-03-25T08:11:09.253Z,97340.96
2019-03-25T08:12:48.599Z,97346.34
2019-03-25T08:14:26.231Z,97342.66
2019-03-25T08:16:05.856Z,97341.55
2019-03-25T08:17:44.937Z,97334.20
2019-03-25T08:19:21.167Z,97337.11
2019-03-25T08:20:58.561Z,97333.63
2019-03-25T08:22:45.069Z,97335.17
2019-03-25T08:24:29.261Z,97339.22
2019-03-25T08:26:07.529Z,97333.29
2019-03-25T08:27:59.787Z,97337.16
2019-03-25T08:29:34.210Z,97336.23
2019-03-25T08:31:10.940Z,97331.78
2019-03-25T08:32:51.139Z,97343.77
2019-03-25T08:34:30.393Z,97339.16
2019-03-25T08:36:06.103Z,97333.73
2019-03-25T08:37:42.409Z,97339.53
2019-03-25T08:39:18.578Z,97340.13
2019-03-25T08:41:22.250Z,97318.66
2019-03-25T08:42:47.679Z,97340.12
2019-03-25T08:44:26.065Z,97340.12
2019-03-25T08:46:11.396Z,97341.66
2019-03-25T08:47:49.484Z,97339.33
2019-03-25T08:49:30.264Z,97343.98
2019-03-25T08:51:06.710Z,97342.23
2019-03-25T08:52:44.385Z,97340.69
2019-03-25T08:54:20.375Z,97335.66
2019-03-25T08:56:06.133Z,97344.73
2019-03-25T08:57:44.143Z,97345.89
2019-03-25T08:59:24.560Z,97343.58
2019-03-25T09:01:00.463Z,97343.98
2019-03-25T09:02:36.312Z,97347.45
2019-03-25T09:04:12.343Z,97338.38
2019-03-25T09:05:59.371Z,97341.47
2019-03-25T09:07:37.482Z,97331.80
2019-03-25T09:09:18.315Z,97325.23
2019-03-25T09:10:57.485Z,97328.90
2019-03-25T09:12:33.521Z,97326.58
2019-03-25T09:14:09.262Z,97319.62
2019-03-25T09:15:52.123Z,97319.42
2019-03-25T09:17:38.082Z,97310.17
2019-03-25T09:19:15.560Z,97318.85
2019-03-25T09:20:51.231Z,97315.00
2019-03-25T09:22:27.020Z,97322.34
2019-03-25T09:24:03.865Z,97319.83
2019-03-25T09:25:45.077Z,97333.56
2019-03-25T09:27:21.639Z,97324.09
2019-03-25T09:28:58.469Z,97326.37
2019-03-25T09:31:20.333Z,97329.84
2019-03-25T09:32:58.446Z,97343.52
2019-03-25T09:34:35.743Z,97347.75
2019-03-25T09:36:12.330Z,97343.28
2019-03-25T09:37:48.674Z,97362.54
2019-03-25T09:39:28.807Z,97360.97
2019-03-25T09:41:10.181Z,97352.88
2019-03-25T09:44:49.375Z,97363.13
2019-03-25T09:46:25.321Z,97365.23
2019-03-25T09:48:07.574Z,97373.34
2019-03-25T09:49:53.190Z,97369.31
2019-03-25T09:51:35.850Z,97372.03
2019-03-25T09:53:24.032Z,97379.28
2019-03-25T09:55:03.114Z,97376.91
2019-03-25T09:56:43.340Z,97392.48
2019-03-25T09:58:19.040Z,97385.63
2019-03-25T09:59:59.846Z,97393.66
2019-03-25T10:01:37.968Z,97397.70
2019-03-25T10:03:18.407Z,97403.27
2019-03-25T10:05:00.338Z,97403.70
2019-03-25T10:06:36.992Z,97401.98
2019-03-25T10:08:12.846Z,97402.45
2019-03-25T10:09:51.513Z,97400.89
2019-03-25T10:11:33.877Z,97389.53
2019-03-25T10:13:17.148Z,97393.48
2019-03-25T10:14:52.826Z,97394.22
2019-03-25T10:16:30.731Z,97392.02
2019-03-25T10:18:07.768Z,97394.98
2019-03-25T10:19:48.084Z,97393.44
2019-03-25T10:21:26.587Z,97392.67
2019-03-25T10:23:03.647Z,97399.25
2019-03-25T10:24:39.863Z,97385.85
2019-03-25T10:26:19.378Z,97393.17
2019-03-25T10:27:55.591Z,97391.08
2019-03-25T10:29:31.425Z,97386.22
2019-03-25T10:31:11.507Z,97378.44
2019-03-25T10:32:47.263Z,97369.22
2019-03-25T10:34:33.362Z,97370.73
2019-03-25T10:36:16.322Z,97382.39
2019-03-25T10:37:52.160Z,97370.21
2019-03-25T10:39:31.210Z,97367.67
2019-03-25T10:41:06.930Z,97351.73
2019-03-25T10:42:43.211Z,97362.72
2019-03-25T10:44:26.058Z,97367.83
2019-03-25T10:46:10.589Z,97360.30
2019-03-25T10:47:47.381Z,97371.37
2019-03-25T10:49:25.661Z,97360.73
2019-03-25T10:51:01.466Z,97362.06
2019-03-25T10:52:38.148Z,97354.33
2019-03-25T10:54:18.196Z,97371.18
2019-03-25T10:55:58.839Z,97368.50
2019-03-25T10:57:35.345Z,97366.57
2019-03-25T10:59:22.125Z,97381.09
2019-03-25T11:01:02.149Z,97390.88
2019-03-25T11:02:37.805Z,97383.11
2019-03-25T11:04:15.418Z,97385.20
2019-03-25T11:05:56.538Z,97390.88
2019-03-25T11:07:33.765Z,97382.41
2019-03-25T11:09:17.365Z,97396.97
2019-03-25T11:10:54.763Z,97389.43
2019-03-25T11:12:34.670Z,97380.95
2019-03-25T11:14:12.804Z,97375.54
2019-03-25T11:15:49.168Z,97386.82
2019-03-25T11:17:25.425Z,97372.73
2019-03-25T11:19:01.666Z,97388.97
2019-03-25T11:20:54.805Z,97399.80
2019-03-25T11:22:31.022Z,97384.95
2019-03-25T11:24:07.665Z,97400.56
2019-03-25T11:25:43.465Z,97397.86
2019-03-25T11:27:23.346Z,97400.34
2019-03-25T11:29:08.248Z,97412.91
2019-03-25T11:31:00.101Z,97387.39
2019-03-25T11:32:51.106Z,97393.75
2019-03-25T11:34:28.557Z,97391.27
2019-03-25T11:36:06.603Z,97400.39
2019-03-25T11:37:42.811Z,97386.47
2019-03-25T11:39:21.771Z,97394.75
2019-03-25T11:40:57.741Z,97391.36
2019-03-25T11:42:38.408Z,97415.64
2019-03-25T11:44:15.879Z,97405.16
2019-03-25T11:45:53.690Z,97393.81
2019-03-25T11:47:31.911Z,97405.34
2019-03-25T11:49:11.847Z,97405.25
2019-03-25T11:50:47.787Z,97416.48
2019-03-25T11:52:26.645Z,97414.33
2019-03-25T11:54:03.731Z,97419.03
2019-03-25T11:55:43.177Z,97414.44
2019-03-25T11:57:19.074Z,97415.42
2019-03-25T11:58:54.801Z,97410.37
2019-03-25T12:00:37.333Z,97400.81
2019-03-25T12:02:19.060Z,97407.41
2019-03-25T12:05:58.231Z,97424.80
2019-03-25T12:07:37.328Z,97453.45
2019-03-25T12:09:19.291Z,97445.94
2019-03-25T12:10:57.927Z,97452.77
2019-03-25T12:12:34.824Z,97485.42
2019-03-25T12:14:14.338Z,97496.00
2019-03-25T12:15:54.387Z,97476.27
2019-03-25T12:17:31.606Z,97475.51
2019-03-25T12:19:10.861Z,97466.27
2019-03-25T12:20:47.344Z,97461.11
2019-03-25T12:22:25.988Z,97455.25
2019-03-25T12:24:01.691Z,97454.80
2019-03-25T12:25:42.042Z,97443.57
2019-03-25T12:27:17.654Z,97449.81
2019-03-25T12:28:55.212Z,97433.59
2019-03-25T12:30:30.841Z,97434.89
2019-03-25T12:32:09.570Z,97429.61
2019-03-25T12:33:45.790Z,97433.52
2019-03-25T12:35:21.929Z,97428.12
2019-03-25T12:36:57.717Z,97441.02
2019-03-25T12:38:37.834Z,97430.07
2019-03-25T12:40:14.768Z,97428.00
2019-03-25T12:41:53.288Z,97444.22
2019-03-25T12:43:31.630Z,97423.38
2019-03-25T12:45:18.101Z,97430.25
2019-03-25T12:46:54.115Z,97421.62
2019-03-25T12:48:30.398Z,97426.49
2019-03-25T12:50:06.372Z,97418.91
2019-03-25T12:51:42.485Z,97423.47
2019-03-25T12:53:18.654Z,97420.62
2019-03-25T12:54:58.865Z,97406.70
2019-03-25T12:56:34.525Z,97395.98
2019-03-25T12:58:10.737Z,97399.39
2019-03-25T12:59:51.490Z,97391.02
2019-03-25T13:01:27.587Z,97384.06
2019-03-25T13:03:14.436Z,97387.74
2019-03-25T13:04:56.273Z,97381.03
2019-03-25T13:06:36.617Z,97374.03
2019-03-25T13:08:17.475Z,97388.86
2019-03-25T13:09:54.949Z,97405.53
2019-03-25T13:11:30.711Z,97424.47
2019-03-25T13:13:06.345Z,97420.50
2019-03-25T13:14:47.295Z,97425.16
2019-03-25T13:16:28.901Z,97413.80
2019-03-25T13:18:12.768Z,97425.69
2019-03-25T13:19:55.388Z,97429.18
2019-03-25T13:21:32.212Z,97422.41
2019-03-25T13:23:13.474Z,97408.55
2019-03-25T13:24:55.711Z,97425.41
2019-03-25T13:26:34.791Z,97421.53
2019-03-25T13:28:14.672Z,97400.87
2019-03-25T13:29:52.695Z,97390.31
2019-03-25T13:31:29.073Z,97401.12
2019-03-25T13:33:06.181Z,97389.72
2019-03-25T13:34:46.278Z,97389.44
2019-03-25T13:36:21.933Z,97372.07
2019-03-25T13:37:59.026Z,97396.57
2019-03-25T13:39:35.345Z,97376.30
2019-03-25T13:41:15.158Z,97353.25
2019-03-25T13:42:50.915Z,97354.25
2019-03-25T13:44:26.978Z,97368.08
2019-03-25T13:46:08.209Z,97365.81
2019-03-25T13:47:46.897Z,97369.94
2019-03-25T13:49:22.600Z,97360.44
2019-03-25T13:50:58.305Z,97354.45
2019-03-25T13:52:34.545Z,97356.66
2019-03-25T13:54:11.716Z,97396.17
2019-03-25T13:55:47.511Z,97387.55
2019-03-25T13:57:24.926Z,97412.42
2019-03-25T13:59:03.692Z,97423.36
2019-03-25T14:00:46.211Z,97464.15
2019-03-25T14:02:24.398Z,97477.32
2019-03-25T14:04:00.686Z,97479.66
2019-03-25T14:05:37.373Z,97466.91
2019-03-25T14:07:13.288Z,97450.66
2019-03-25T14:08:55.876Z,97460.33
2019-03-25T14:10:33.502Z,97454.14
2019-03-25T14:12:12.524Z,97429.97
2019-03-25T14:13:55.873Z,97427.44
2019-03-25T14:15:40.538Z,97427.06
2019-03-25T14:17:21.937Z,97433.63
2019-03-25T14:18:58.307Z,97436.34
2019-03-25T14:20:35.706Z,97432.27
2019-03-25T14:22:14.407Z,97438.86
2019-03-25T14:23:50.856Z,97438.08
2019-03-25T14:25:29.976Z,97440.16
2019-03-25T14:27:07.901Z,97448.50
2019-03-25T14:28:50.532Z,97445.42
2019-03-25T14:30:28.335Z,97447.56
2019-03-25T14:32:04.775Z,97445.80
2019-03-25T14:33:41.406Z,97453.75
2019-03-25T14:35:44.672Z,97450.65
2019-03-25T14:37:20.608Z,97463.22
2019-03-25T14:38:57.708Z,97466.52
2019-03-25T14:40:36.359Z,97449.50
2019-03-25T14:42:17.145Z,97450.45
2019-03-25T14:43:53.597Z,97460.33
2019-03-25T14:45:34.041Z,97454.70
2019-03-25T14:47:19.940Z,97458.90
2019-03-25T14:48:55.714Z,97459.09
2019-03-25T14:50:32.545Z,97456.13
2019-03-25T14:52:10.270Z,97448.03
2019-03-25T14:53:49.612Z,97442.25
2019-03-25T14:55:27.940Z,97439.52
2019-03-25T14:57:06.811Z,97439.31
2019-03-25T14:58:54.788Z,97440.09
2019-03-25T15:00:31.010Z,97439.08
2019-03-25T15:02:11.729Z,97440.98
2019-03-25T15:03:48.151Z,97434.00
2019-03-25T15:05:25.775Z,97437.18
2019-03-25T15:07:05.605Z,97429.05
2019-03-25T15:08:42.794Z,97427.80
2019-03-25T15:10:21.688Z,97446.08
2019-03-25T15:11:58.954Z,97441.83
2019-03-25T15:13:38.167Z,97447.10
2019-03-25T15:15:19.658Z,97448.60
2019-03-25T15:17:02.736Z,97441.88
2019-03-25T15:18:58.330Z,97453.89
2019-03-25T15:20:48.530Z,97468.84
2019-03-25T15:22:27.514Z,97467.30
2019-03-25T15:24:11.888Z,97461.06
2019-03-25T15:25:56.737Z,97463.81
2019-03-25T15:27:36.301Z,97463.04
2019-03-25T15:29:28.230Z,97465.95
2019-03-25T15:31:08.493Z,97464.44
2019-03-25T15:32:51.779Z,97454.95
2019-03-25T15:34:41.981Z,97471.80
2019-03-25T15:36:27.915Z,97479.19
2019-03-25T15:38:06.507Z,97500.52
2019-03-25T15:39:47.179Z,97504.60
2019-03-25T15:41:24.490Z,97502.05
2019-03-25T15:43:00.965Z,97493.87
2019-03-25T15:44:38.107Z,97510.34
2019-03-25T15:46:23.450Z,97514.39
2019-03-25T15:48:00.195Z,97498.26
2019-03-25T15:50:01.910Z,97520.80
2019-03-25T15:51:47.911Z,97522.08
2019-03-25T15:53:28.694Z,97522.45
2019-03-25T15:55:07.054Z,97531.53
2019-03-25T15:56:48.117Z,97538.75
2019-03-25T15:58:27.007Z,97544.98
2019-03-25T16:00:11.080Z,97537.31
2019-03-25T16:01:48.368Z,97549.72
2019-03-25T16:03:24.758Z,97538.56
2019-03-25T16:05:00.778Z,97545.94
2019-03-25T16:06:41.425Z,97554.08
2019-03-25T16:08:18.146Z,97562.03
2019-03-25T16:09:58.789Z,97553.16
2019-03-25T16:11:35.400Z,97556.44
2019-03-25T16:13:17.550Z,97557.05
2019-03-25T16:14:54.247Z,97569.45
2019-03-25T16:16:38.995Z,97570.57
2019-03-25T16:18:36.661Z,97579.52
2019-03-25T16:20:25.495Z,97571.22
2019-03-25T16:22:04.415Z,97570.29
2019-03-25T16:23:42.989Z,97584.81
2019-03-25T16:25:30.692Z,97574.38
2019-03-25T16:27:06.869Z,97583.45
2019-03-25T16:28:52.427Z,97580.93
2019-03-25T16:30:29.100Z,97596.75
2019-03-25T16:32:07.528Z,97598.70
2019-03-25T16:33:45.488Z,97590.58
2019-03-25T16:35:25.404Z,97597.33
2019-03-25T16:37:03.031Z,97594.63
2019-03-25T16:38:43.586Z,97608.56
2019-03-25T16:40:23.231Z,97611.08
2019-03-25T16:42:04.245Z,97617.09
2019-03-25T16:43:43.275Z,97619.22
2019-03-25T16:45:22.599Z,97613.61
2019-03-25T16:47:20.426Z,97625.02
2019-03-25T16:49:03.664Z,97617.67
2019-03-25T16:50:44.993Z,97620.41
2019-03-25T16:52:24.262Z,97618.10
2019-03-25T16:54:19.526Z,97620.80
2019-03-25T16:55:56.310Z,97631.80
2019-03-25T16:57:37.372Z,97633.95
2019-03-25T16:59:17.580Z,97628.72
2019-03-25T17:00:56.562Z,97633.75
2019-03-25T17:02:35.951Z,97627.92
2019-03-25T17:04:12.651Z,97639.34
2019-03-25T17:05:53.814Z,97641.83
2019-03-25T17:07:37.615Z,97647.46
2019-03-25T17:09:14.226Z,97646.86
2019-03-25T17:10:51.771Z,97665.21
2019-03-25T17:12:34.861Z,97660.00
2019-03-25T17:14:15.714Z,97662.33
2019-03-25T17:15:55.117Z,97660.78
2019-03-25T17:17:45.629Z,97668.91
2019-03-25T17:19:30.841Z,97671.98
2019-03-25T17:21:27.040Z,97684.93
2019-03-25T17:23:04.695Z,97689.77
2019-03-25T17:24:45.451Z,97702.68
2019-03-25T17:26:41.987Z,97697.57
2019-03-25T17:28:12.767Z,97705.60
2019-03-25T17:29:54.287Z,97710.17
2019-03-25T17:31:32.447Z,97715.92
2019-03-25T17:33:08.345Z,97708.38
2019-03-25T17:34:51.245Z,97709.33
2019-03-25T17:36:40.374Z,97721.49
2019-03-25T17:38:20.674Z,97720.31
2019-03-25T17:40:09.415Z,97728.55
2019-03-25T17:41:51.301Z,97722.78
2019-03-25T17:43:36.050Z,97730.48
2019-03-25T17:45:14.448Z,97729.94
2019-03-25T17:46:52.300Z,97726.05
2019-03-25T17:48:32.161Z,97731.09
2019-03-25T17:50:12.616Z,97742.52
2019-03-25T17:51:52.664Z,97736.16
2019-03-25T17:53:34.919Z,97744.84
2019-03-25T17:55:13.093Z,97752.08
2019-03-25T17:56:50.726Z,97748.80
2019-03-25T17:58:28.709Z,97750.16
2019-03-25T18:00:10.121Z,97759.05
2019-03-25T18:01:48.234Z,97756.62
2019-03-25T18:03:26.947Z,97764.87
2019-03-25T18:05:03.666Z,97767.53
2019-03-25T18:06:40.600Z,97766.80
2019-03-25T18:08:16.615Z,97769.09
2019-03-25T18:09:57.762Z,97762.13
2019-03-25T18:11:35.110Z,97773.55
2019-03-25T18:13:22.000Z,97783.39
2019-03-25T18:14:51.961Z,97777.61
2019-03-25T18:16:38.400Z,97789.61
2019-03-25T18:18:24.687Z,97774.16
2019-03-25T18:20:06.243Z,97786.53
2019-03-25T18:21:51.737Z,97782.52
2019-03-25T18:23:42.325Z,97791.00
2019-03-25T18:25:39.337Z,97789.61
2019-03-25T18:27:19.796Z,97796.58
2019-03-25T18:28:57.688Z,97801.38
2019-03-25T18:30:41.594Z,97793.09
2019-03-25T18:32:29.151Z,97794.24
2019-03-25T18:34:17.499Z,97799.66
2019-03-25T18:35:59.233Z,97799.66
2019-03-25T18:37:41.706Z,97804.11
2019-03-25T18:39:34.240Z,97804.69
2019-03-25T18:41:11.842Z,97813.05
2019-03-25T18:42:53.687Z,97807.64
2019-03-25T18:44:30.232Z,97803.38
2019-03-25T18:46:08.590Z,97806.08
2019-03-25T18:47:48.179Z,97805.70
2019-03-25T18:49:28.807Z,97816.32
2019-03-25T18:51:09.196Z,97832.55
2019-03-25T18:52:48.759Z,97839.69
2019-03-25T18:54:27.029Z,97833.49
2019-03-25T18:56:06.282Z,97836.81
2019-03-25T18:57:44.317Z,97837.18
2019-03-25T18:59:38.209Z,97829.44
2019-03-25T19:01:20.706Z,97830.59
2019-03-25T19:03:19.660Z,97834.81
2019-03-25T19:05:02.633Z,97837.11
2019-03-25T19:06:41.018Z,97833.22
2019-03-25T19:08:20.650Z,97832.84
2019-03-25T19:10:09.817Z,97832.44
2019-03-25T19:11:45.330Z,97836.45
2019-03-25T19:13:21.099Z,97838.13
2019-03-25T19:15:08.883Z,97840.05
2019-03-25T19:16:47.427Z,97843.69
2019-03-25T19:18:35.675Z,97857.16
2019-03-25T19:20:12.969Z,97846.55
2019-03-25T19:21:49.412Z,97860.44
2019-03-25T19:23:31.207Z,97857.12
2019-03-25T19:25:12.842Z,97862.14
2019-03-25T19:26:55.833Z,97858.05